createdAt,value
2023-02-12T00:01:25.465Z,10.70
2023-02-12T00:03:53.432Z,10.50
2023-02-12T00:06:21.447Z,10.10
2023-02-12T00:08:51.055Z,9.60
2023-02-12T00:11:21.622Z,8.30
2023-02-12T00:13:50.104Z,9.70
2023-02-12T00:16:20.544Z,9.60
2023-02-12T00:18:52.012Z,8.70
2023-02-12T00:21:20.118Z,9.60
2023-02-12T00:23:48.578Z,9.80
2023-02-12T00:26:19.356Z,9.20
2023-02-12T00:28:47.454Z,9.70
2023-02-12T00:31:19.228Z,9.40
2023-02-12T00:33:47.521Z,10.20
2023-02-12T00:36:18.684Z,11.80
2023-02-12T00:38:46.994Z,8.20
2023-02-12T00:41:15.433Z,9.10
2023-02-12T00:43:43.268Z,10.00
2023-02-12T00:46:11.832Z,10.30
2023-02-12T00:48:39.714Z,9.60
2023-02-12T00:51:08.004Z,9.60
2023-02-12T00:53:36.068Z,9.00
2023-02-12T00:56:04.766Z,10.10
2023-02-12T00:58:32.535Z,8.70
2023-02-12T01:01:00.449Z,9.10
2023-02-12T01:03:28.248Z,9.60
2023-02-12T01:05:57.683Z,10.40
2023-02-12T01:08:25.945Z,9.70
2023-02-12T01:10:58.815Z,10.20
2023-02-12T01:16:03.221Z,9.00
2023-02-12T01:18:31.041Z,8.40
2023-02-12T01:20:59.198Z,9.70
2023-02-12T01:23:27.159Z,9.90
2023-02-12T01:25:55.112Z,8.90
2023-02-12T01:28:23.379Z,8.90
2023-02-12T01:30:51.325Z,9.00
2023-02-12T01:33:19.492Z,8.00
2023-02-12T01:35:47.415Z,8.70
2023-02-12T01:38:15.206Z,9.40
2023-02-12T01:40:43.064Z,11.50
2023-02-12T01:43:13.660Z,9.40
2023-02-12T01:45:49.745Z,9.00
2023-02-12T01:48:19.444Z,7.70
2023-02-12T01:50:48.884Z,7.80
2023-02-12T01:53:20.418Z,8.40
2023-02-12T01:55:50.065Z,9.60
2023-02-12T01:58:18.016Z,9.00
2023-02-12T02:00:46.260Z,8.20
2023-02-12T02:03:14.361Z,8.60
2023-02-12T02:05:54.412Z,8.20
2023-02-12T02:08:23.389Z,8.30
2023-02-12T02:10:51.116Z,7.90
2023-02-12T02:13:37.781Z,8.20
2023-02-12T02:16:26.419Z,9.30
2023-02-12T02:18:59.498Z,9.50
2023-02-12T02:21:55.616Z,7.80
2023-02-12T02:24:45.802Z,9.20
2023-02-12T02:27:36.009Z,9.80
2023-02-12T02:30:19.150Z,8.20
2023-02-12T02:33:19.422Z,8.70
2023-02-12T02:36:11.286Z,8.70
2023-02-12T02:39:01.948Z,8.20
2023-02-12T02:41:47.550Z,8.60
2023-02-12T02:44:22.466Z,8.70
2023-02-12T02:46:52.405Z,7.80
2023-02-12T02:49:24.303Z,9.80
2023-02-12T02:51:56.865Z,8.70
2023-02-12T02:54:58.586Z,7.80
2023-02-12T02:57:34.169Z,8.00
2023-02-12T03:00:09.445Z,7.80
2023-02-12T03:02:39.124Z,8.50
2023-02-12T03:05:12.473Z,9.70
2023-02-12T03:07:52.671Z,9.80
2023-02-12T03:10:24.194Z,10.20
2023-02-12T03:12:56.190Z,7.90
2023-02-12T03:15:34.175Z,8.20
2023-02-12T03:18:06.290Z,7.30
2023-02-12T03:20:39.604Z,9.00
2023-02-12T03:23:12.638Z,8.60
2023-02-12T03:28:13.858Z,7.70
2023-02-12T03:30:52.491Z,8.10
2023-02-12T03:33:30.508Z,8.50
2023-02-12T03:36:14.487Z,7.80
2023-02-12T03:38:47.415Z,8.20
2023-02-12T03:41:26.398Z,8.60
2023-02-12T03:46:35.049Z,7.70
2023-02-12T03:49:37.199Z,7.10
2023-02-12T03:52:05.434Z,7.70
2023-02-12T03:54:33.552Z,7.90
2023-02-12T03:57:08.770Z,8.50
2023-02-12T03:59:38.265Z,7.80
2023-02-12T04:02:07.284Z,7.50
2023-02-12T04:04:35.189Z,7.60
2023-02-12T04:07:03.160Z,7.60
2023-02-12T04:09:31.575Z,7.50
2023-02-12T04:12:27.850Z,7.70
2023-02-12T04:15:17.761Z,7.60
2023-02-12T04:17:46.882Z,7.30
2023-02-12T04:20:41.389Z,8.60
2023-02-12T04:23:17.634Z,6.10
2023-02-12T04:25:51.915Z,7.00
2023-02-12T04:28:34.135Z,7.40
2023-02-12T04:31:12.274Z,7.30
2023-02-12T04:33:49.348Z,7.80
2023-02-12T04:36:26.174Z,7.70
2023-02-12T04:38:57.617Z,7.30
2023-02-12T04:41:26.320Z,7.60
2023-02-12T04:43:54.065Z,7.50
2023-02-12T04:46:22.087Z,7.20
2023-02-12T04:48:58.154Z,7.80
2023-02-12T04:51:26.090Z,7.70
2023-02-12T04:53:54.065Z,7.60
2023-02-12T04:56:21.882Z,7.20
2023-02-12T04:58:50.606Z,7.00
2023-02-12T05:01:18.543Z,7.00
2023-02-12T05:03:46.371Z,7.30
2023-02-12T05:06:14.365Z,7.90
2023-02-12T05:08:42.124Z,8.30
2023-02-12T05:11:10.781Z,7.60
2023-02-12T05:13:39.618Z,7.30
2023-02-12T05:16:08.275Z,7.20
2023-02-12T05:18:36.165Z,6.80
2023-02-12T05:21:05.183Z,7.80
2023-02-12T05:23:34.986Z,8.10
2023-02-12T05:26:06.582Z,7.40
2023-02-12T05:28:34.542Z,8.80
2023-02-12T05:31:04.630Z,8.40
2023-02-12T05:33:32.711Z,7.30
2023-02-12T05:36:08.670Z,7.40
2023-02-12T05:38:36.790Z,7.40
2023-02-12T05:41:25.044Z,7.70
2023-02-12T05:43:53.698Z,9.10
2023-02-12T05:46:22.689Z,8.50
2023-02-12T05:48:50.614Z,7.70
2023-02-12T05:51:25.294Z,7.10
2023-02-12T05:54:00.361Z,8.20
2023-02-12T05:56:32.940Z,7.00
2023-02-12T05:59:04.385Z,8.50
2023-02-12T06:01:37.795Z,7.90
2023-02-12T06:04:07.787Z,8.60
2023-02-12T06:06:35.805Z,9.70
2023-02-12T06:09:03.913Z,9.50
2023-02-12T06:11:31.839Z,9.50
2023-02-12T06:14:03.221Z,9.50
2023-02-12T06:16:31.232Z,8.60
2023-02-12T06:19:00.892Z,9.60
2023-02-12T06:21:29.892Z,11.10
2023-02-12T06:23:57.851Z,9.70
2023-02-12T06:26:26.243Z,10.00
2023-02-12T06:28:54.002Z,10.80
2023-02-12T06:31:29.136Z,17.10
2023-02-12T06:33:59.356Z,17.90
2023-02-12T06:36:27.737Z,15.20
2023-02-12T06:38:55.622Z,13.90
2023-02-12T06:41:23.888Z,17.50
2023-02-12T06:43:51.754Z,15.50
2023-02-12T06:46:20.234Z,18.70
2023-02-12T06:48:48.028Z,21.60
2023-02-12T06:51:18.077Z,17.10
2023-02-12T06:53:45.906Z,11.00
2023-02-12T06:56:14.339Z,11.10
2023-02-12T06:58:45.169Z,11.70
2023-02-12T07:01:17.699Z,12.40
2023-02-12T07:03:50.857Z,16.60
2023-02-12T07:06:19.422Z,13.40
2023-02-12T07:08:47.877Z,14.80
2023-02-12T07:11:16.149Z,14.30
2023-02-12T07:13:45.062Z,16.80
2023-02-12T07:16:15.554Z,20.60
2023-02-12T07:18:44.356Z,23.70
2023-02-12T07:21:13.826Z,12.80
2023-02-12T07:23:42.497Z,11.60
2023-02-12T07:26:12.720Z,9.40
2023-02-12T07:28:41.136Z,8.60
2023-02-12T07:31:13.601Z,8.10
2023-02-12T07:33:42.257Z,8.40
2023-02-12T07:36:12.816Z,10.10
2023-02-12T07:38:40.796Z,9.20
2023-02-12T07:41:20.088Z,8.70
2023-02-12T07:43:49.782Z,7.40
2023-02-12T07:46:24.001Z,6.90
2023-02-12T07:48:52.787Z,7.40
2023-02-12T07:51:20.748Z,7.60
2023-02-12T07:53:49.496Z,8.40
2023-02-12T07:56:20.028Z,8.50
2023-02-12T07:58:50.378Z,7.70
2023-02-12T08:01:23.208Z,7.20
2023-02-12T08:03:51.457Z,7.40
2023-02-12T08:06:26.388Z,7.30
2023-02-12T08:08:56.436Z,9.30
2023-02-12T08:11:25.068Z,8.90
2023-02-12T08:13:53.641Z,9.10
2023-02-12T08:16:24.022Z,8.80
2023-02-12T08:19:07.199Z,7.80
2023-02-12T08:21:42.965Z,7.20
2023-02-12T08:24:10.991Z,8.00
2023-02-12T08:26:39.740Z,8.40
2023-02-12T08:29:10.918Z,8.10
2023-02-12T08:31:41.801Z,8.80
2023-02-12T08:34:21.527Z,7.30
2023-02-12T08:36:51.314Z,6.80
2023-02-12T08:39:19.466Z,7.60
2023-02-12T08:41:48.240Z,7.50
2023-02-12T08:44:17.052Z,7.70
2023-02-12T08:46:50.344Z,7.30
2023-02-12T08:49:20.423Z,8.00
2023-02-12T08:51:53.316Z,8.70
2023-02-12T08:54:23.963Z,8.90
2023-02-12T08:56:56.448Z,9.10
2023-02-12T08:59:24.666Z,8.10
2023-02-12T09:01:52.947Z,8.00
2023-02-12T09:04:28.290Z,8.80
2023-02-12T09:06:56.491Z,8.90
2023-02-12T09:09:24.651Z,9.50
2023-02-12T09:11:52.653Z,10.60
2023-02-12T09:14:24.840Z,8.90
2023-02-12T09:19:22.126Z,7.90
2023-02-12T09:21:56.034Z,8.90
2023-02-12T09:24:27.506Z,7.80
2023-02-12T09:26:56.427Z,8.20
2023-02-12T09:29:24.646Z,8.70
2023-02-12T09:31:52.950Z,8.00
2023-02-12T09:34:21.001Z,9.00
2023-02-12T09:36:48.889Z,8.40
2023-02-12T09:39:16.944Z,8.30
2023-02-12T09:42:07.930Z,8.40
2023-02-12T09:44:58.036Z,8.30
2023-02-12T09:47:47.207Z,8.60
2023-02-12T09:50:34.196Z,10.30
2023-02-12T09:53:02.259Z,8.20
2023-02-12T09:55:33.438Z,7.80
2023-02-12T09:58:02.835Z,8.30
2023-02-12T10:00:32.821Z,7.70
2023-02-12T10:03:05.477Z,8.40
2023-02-12T10:05:41.704Z,8.30
2023-02-12T10:08:09.496Z,8.50
2023-02-12T10:11:15.864Z,9.10
2023-02-12T10:13:49.819Z,9.60
2023-02-12T10:16:38.419Z,8.10
2023-02-12T10:19:06.510Z,7.70
2023-02-12T10:21:46.442Z,7.00
2023-02-12T10:24:34.573Z,7.40
2023-02-12T10:27:31.464Z,7.30
2023-02-12T10:30:00.927Z,8.40
2023-02-12T10:32:34.210Z,7.00
2023-02-12T10:35:02.530Z,8.10
2023-02-12T10:37:56.797Z,7.80
2023-02-12T10:40:32.787Z,7.70
2023-02-12T10:43:02.316Z,8.60
2023-02-12T10:45:32.187Z,6.70
2023-02-12T10:48:20.731Z,7.50
2023-02-12T10:51:09.451Z,7.20
2023-02-12T10:53:42.761Z,6.60
2023-02-12T10:56:19.546Z,7.20
2023-02-12T10:58:50.359Z,8.20
2023-02-12T11:01:38.786Z,7.20
2023-02-12T11:04:21.873Z,7.20
2023-02-12T11:07:04.981Z,7.60
2023-02-12T11:09:45.428Z,7.00
2023-02-12T11:12:31.675Z,6.50
2023-02-12T11:15:05.854Z,6.60
2023-02-12T11:17:39.516Z,6.80
2023-02-12T11:20:16.894Z,7.90
2023-02-12T11:23:00.396Z,7.00
2023-02-12T11:25:31.785Z,6.80
2023-02-12T11:28:17.782Z,7.40
2023-02-12T11:30:51.002Z,6.20
2023-02-12T11:33:34.770Z,6.90
2023-02-12T11:36:25.895Z,6.90
2023-02-12T11:38:55.889Z,6.30
2023-02-12T11:41:23.887Z,6.20
2023-02-12T11:43:52.992Z,6.70
2023-02-12T11:46:24.319Z,5.60
2023-02-12T11:48:53.900Z,6.30
2023-02-12T11:51:30.116Z,5.90
2023-02-12T11:54:01.403Z,6.30
2023-02-12T11:56:46.482Z,5.80
2023-02-12T11:59:30.821Z,6.50
2023-02-12T12:02:09.330Z,5.60
2023-02-12T12:04:39.568Z,4.50
2023-02-12T12:07:14.324Z,4.40
2023-02-12T12:10:05.816Z,4.70
2023-02-12T12:12:48.685Z,4.30
2023-02-12T12:15:41.799Z,6.10
2023-02-12T12:18:57.889Z,5.40
2023-02-12T12:21:34.766Z,4.50
2023-02-12T12:24:19.562Z,4.30
2023-02-12T12:27:00.932Z,5.00
2023-02-12T12:29:32.048Z,5.10
2023-02-12T12:32:02.073Z,5.20
2023-02-12T12:34:30.276Z,4.40
2023-02-12T12:37:17.193Z,4.10
2023-02-12T12:39:51.396Z,3.70
2023-02-12T12:42:37.426Z,4.20
2023-02-12T12:45:42.965Z,4.50
2023-02-12T12:48:48.491Z,3.40
2023-02-12T12:51:28.927Z,3.60
2023-02-12T12:53:56.984Z,3.40
2023-02-12T12:56:43.995Z,3.60
2023-02-12T12:59:14.541Z,3.40
2023-02-12T13:01:51.356Z,4.00
2023-02-12T13:04:41.111Z,4.10
2023-02-12T13:08:03.278Z,3.90
2023-02-12T13:10:39.636Z,4.90
2023-02-12T13:13:40.528Z,4.30
2023-02-12T13:16:36.554Z,3.40
2023-02-12T13:19:16.128Z,3.90
2023-02-12T13:21:56.069Z,3.80
2023-02-12T13:24:36.411Z,3.10
2023-02-12T13:27:17.202Z,3.10
2023-02-12T13:29:49.805Z,2.50
2023-02-12T13:32:30.140Z,2.40
2023-02-12T13:34:59.097Z,2.50
2023-02-12T13:37:39.364Z,2.80
2023-02-12T13:40:08.892Z,3.40
2023-02-12T13:42:48.414Z,2.90
2023-02-12T13:45:29.370Z,2.50
2023-02-12T13:48:23.672Z,3.60
2023-02-12T13:51:16.398Z,2.70
2023-02-12T13:54:01.580Z,3.10
2023-02-12T13:56:45.875Z,2.60
2023-02-12T13:59:34.915Z,2.70
2023-02-12T14:02:13.014Z,2.60
2023-02-12T14:04:46.161Z,2.90
2023-02-12T14:07:15.890Z,2.70
2023-02-12T14:10:01.465Z,2.20
2023-02-12T14:12:33.984Z,2.60
2023-02-12T14:15:08.342Z,3.00
2023-02-12T14:17:37.606Z,2.40
2023-02-12T14:20:21.162Z,2.70
2023-02-12T14:22:49.064Z,3.20
2023-02-12T14:25:17.143Z,2.60
2023-02-12T14:27:45.179Z,2.50
2023-02-12T14:30:13.571Z,2.80
2023-02-12T14:32:53.446Z,2.30
2023-02-12T14:35:31.419Z,2.30
2023-02-12T14:38:02.142Z,2.40
2023-02-12T14:40:40.733Z,2.40
2023-02-12T14:43:26.673Z,2.50
2023-02-12T14:45:56.928Z,4.20
2023-02-12T14:48:56.369Z,2.50
2023-02-12T14:51:42.269Z,2.70
2023-02-12T14:54:45.668Z,2.50
2023-02-12T14:57:39.099Z,3.60
2023-02-12T15:00:19.194Z,3.10
2023-02-12T15:02:57.631Z,3.60
2023-02-12T15:05:54.074Z,3.10
2023-02-12T15:08:27.412Z,3.10
2023-02-12T15:11:14.576Z,4.30
2023-02-12T15:14:27.379Z,3.30
2023-02-12T15:17:17.349Z,3.40
2023-02-12T15:19:58.270Z,3.60
2023-02-12T15:22:36.009Z,3.80
2023-02-12T15:25:27.972Z,3.20
2023-02-12T15:28:01.563Z,3.20
2023-02-12T15:30:32.482Z,4.20
2023-02-12T15:33:03.616Z,3.90
2023-02-12T15:35:34.787Z,3.80
2023-02-12T15:38:03.482Z,3.70
2023-02-12T15:40:31.893Z,3.70
2023-02-12T15:43:03.245Z,3.70
2023-02-12T15:45:35.855Z,4.40
2023-02-12T15:48:09.991Z,4.10
2023-02-12T15:50:49.208Z,4.50
2023-02-12T15:53:17.527Z,4.50
2023-02-12T15:55:49.258Z,4.00
2023-02-12T15:58:27.651Z,4.20
2023-02-12T16:01:00.645Z,4.30
2023-02-12T16:03:35.215Z,5.30
2023-02-12T16:06:06.598Z,5.90
2023-02-12T16:08:34.862Z,5.50
2023-02-12T16:11:13.798Z,5.10
2023-02-12T16:13:58.845Z,5.10
2023-02-12T16:16:29.998Z,5.90
2023-02-12T16:19:05.918Z,5.10
2023-02-12T16:21:36.796Z,6.00
2023-02-12T16:24:06.237Z,6.40
2023-02-12T16:26:34.246Z,6.60
2023-02-12T16:29:02.383Z,7.40
2023-02-12T16:31:30.426Z,7.00
2023-02-12T16:33:59.372Z,8.00
2023-02-12T16:36:30.651Z,7.50
2023-02-12T16:39:04.159Z,8.90
2023-02-12T16:41:34.503Z,8.10
2023-02-12T16:44:02.510Z,8.40
2023-02-12T16:46:35.170Z,8.70
2023-02-12T16:49:03.945Z,9.30
2023-02-12T16:51:34.885Z,7.30
2023-02-12T16:54:05.141Z,8.00
2023-02-12T16:56:38.846Z,8.00
2023-02-12T16:59:06.748Z,8.30
2023-02-12T17:01:36.795Z,9.40
2023-02-12T17:04:07.477Z,9.90
2023-02-12T17:06:35.527Z,9.10
2023-02-12T17:09:03.474Z,9.00
2023-02-12T17:11:31.467Z,8.70
2023-02-12T17:13:59.466Z,8.30
2023-02-12T17:16:31.857Z,9.50
2023-02-12T17:19:00.800Z,7.20
2023-02-12T17:21:38.483Z,7.50
2023-02-12T17:24:20.502Z,8.70
2023-02-12T17:26:50.850Z,7.80
2023-02-12T17:29:20.528Z,7.40
2023-02-12T17:31:49.369Z,7.10
2023-02-12T17:34:17.572Z,6.50
2023-02-12T17:36:46.075Z,6.60
2023-02-12T17:39:15.647Z,7.00
2023-02-12T17:41:44.317Z,7.00
2023-02-12T17:44:14.144Z,8.30
2023-02-12T17:46:42.738Z,8.40
2023-02-12T17:49:10.979Z,8.50
2023-02-12T17:51:38.984Z,8.20
2023-02-12T17:54:07.661Z,9.70
2023-02-12T17:56:35.514Z,8.60
2023-02-12T17:59:03.426Z,8.20
2023-02-12T18:01:31.453Z,8.10
2023-02-12T18:03:59.510Z,8.80
2023-02-12T18:06:30.292Z,8.90
2023-02-12T18:09:00.015Z,9.00
2023-02-12T18:11:29.560Z,9.20
2023-02-12T18:13:58.460Z,10.30
2023-02-12T18:16:30.638Z,9.20
2023-02-12T18:19:00.010Z,8.70
2023-02-12T18:21:28.173Z,10.00
2023-02-12T18:23:56.864Z,10.40
2023-02-12T18:26:24.628Z,9.90
2023-02-12T18:28:53.996Z,11.20
2023-02-12T18:31:22.196Z,12.00
2023-02-12T18:33:50.291Z,10.90
2023-02-12T18:36:20.396Z,12.20
2023-02-12T18:38:49.681Z,12.60
2023-02-12T18:41:26.413Z,12.60
2023-02-12T18:43:57.230Z,12.40
2023-02-12T18:46:29.545Z,12.70
2023-02-12T18:48:58.140Z,12.30
2023-02-12T18:51:29.477Z,12.60
2023-02-12T18:54:02.571Z,12.30
2023-02-12T18:56:33.104Z,12.40
2023-02-12T18:59:04.766Z,13.50
2023-02-12T19:01:36.818Z,13.00
2023-02-12T19:04:06.934Z,12.00
2023-02-12T19:06:40.029Z,13.10
2023-02-12T19:09:08.887Z,12.80
2023-02-12T19:11:36.815Z,14.40
2023-02-12T19:14:07.253Z,11.80
2023-02-12T19:16:38.504Z,14.30
2023-02-12T19:19:14.884Z,12.80
2023-02-12T19:21:43.392Z,11.60
2023-02-12T19:24:13.464Z,12.30
2023-02-12T19:26:41.881Z,12.30
2023-02-12T19:29:13.618Z,13.70
2023-02-12T19:31:46.240Z,12.60
2023-02-12T19:34:21.549Z,12.80
2023-02-12T19:36:51.074Z,12.50
2023-02-12T19:39:22.504Z,13.60
2023-02-12T19:41:51.061Z,12.00
2023-02-12T19:44:24.920Z,12.50
2023-02-12T19:46:56.180Z,11.80
2023-02-12T19:49:28.982Z,12.30
2023-02-12T19:51:56.967Z,11.40
2023-02-12T19:54:25.250Z,13.10
2023-02-12T19:56:55.505Z,12.00
2023-02-12T19:59:25.313Z,12.20
2023-02-12T20:01:54.114Z,11.10
2023-02-12T20:04:23.324Z,12.10
2023-02-12T20:06:52.463Z,12.50
2023-02-12T20:09:22.848Z,13.00
2023-02-12T20:11:54.493Z,12.70
2023-02-12T20:14:24.386Z,12.30
2023-02-12T20:17:03.488Z,12.60
2023-02-12T20:19:36.747Z,11.90
2023-02-12T20:22:05.976Z,12.40
2023-02-12T20:24:35.716Z,11.30
2023-02-12T20:27:04.367Z,11.70
2023-02-12T20:29:33.312Z,11.20
2023-02-12T20:32:02.413Z,11.10
2023-02-12T20:34:39.785Z,12.00
2023-02-12T20:37:20.025Z,11.00
2023-02-12T20:39:48.486Z,11.70
2023-02-12T20:42:16.972Z,12.90
2023-02-12T20:44:45.022Z,12.80
2023-02-12T20:47:14.490Z,13.90
2023-02-12T20:49:44.195Z,11.80
2023-02-12T20:52:15.314Z,12.30
2023-02-12T20:54:47.741Z,10.80
2023-02-12T20:57:19.494Z,11.60
2023-02-12T20:59:49.880Z,11.50
2023-02-12T21:02:19.576Z,12.50
2023-02-12T21:04:52.304Z,13.50
2023-02-12T21:07:21.495Z,12.80
2023-02-12T21:09:50.776Z,13.00
2023-02-12T21:12:21.756Z,12.40
2023-02-12T21:14:52.280Z,11.80
2023-02-12T21:17:24.169Z,13.40
2023-02-12T21:19:54.249Z,12.90
2023-02-12T21:22:22.445Z,13.70
2023-02-12T21:24:50.299Z,12.20
2023-02-12T21:27:19.738Z,11.00
2023-02-12T21:29:47.688Z,13.50
2023-02-12T21:32:17.037Z,11.70
2023-02-12T21:34:47.501Z,13.20
2023-02-12T21:37:17.767Z,12.00
2023-02-12T21:39:45.751Z,11.40
2023-02-12T21:42:13.670Z,10.80
2023-02-12T21:44:42.370Z,12.90
2023-02-12T21:47:11.691Z,12.20
2023-02-12T21:49:39.594Z,11.90
2023-02-12T21:52:07.658Z,12.20
2023-02-12T21:54:36.216Z,11.50
2023-02-12T21:57:04.158Z,10.80
2023-02-12T21:59:34.463Z,12.30
2023-02-12T22:02:05.018Z,12.20
2023-02-12T22:04:34.538Z,10.80
2023-02-12T22:07:03.867Z,11.80
2023-02-12T22:09:33.477Z,12.40
2023-02-12T22:12:02.433Z,11.20
2023-02-12T22:14:31.264Z,12.00
2023-02-12T22:17:02.438Z,11.10
2023-02-12T22:19:31.861Z,15.90
2023-02-12T22:22:02.050Z,12.50
2023-02-12T22:24:31.678Z,11.30
2023-02-12T22:27:04.065Z,13.40
2023-02-12T22:29:35.399Z,11.10
2023-02-12T22:32:07.620Z,10.90
2023-02-12T22:34:37.351Z,11.90
2023-02-12T22:37:08.251Z,11.60
2023-02-12T22:39:38.280Z,12.40
2023-02-12T22:42:06.197Z,11.20
2023-02-12T22:44:36.973Z,10.80
2023-02-12T22:47:08.784Z,11.70
2023-02-12T22:49:39.728Z,11.70
2023-02-12T22:52:08.413Z,9.80
2023-02-12T22:54:36.665Z,11.00
2023-02-12T22:57:05.797Z,10.20
2023-02-12T22:59:33.666Z,10.70
2023-02-12T23:02:04.895Z,9.90
2023-02-12T23:04:34.533Z,9.50
2023-02-12T23:07:03.168Z,11.00
2023-02-12T23:09:33.119Z,8.90
2023-02-12T23:12:01.014Z,9.80
2023-02-12T23:14:32.047Z,9.50
2023-02-12T23:17:00.094Z,10.00
2023-02-12T23:19:30.837Z,10.10
2023-02-12T23:22:00.500Z,8.50
2023-02-12T23:24:28.440Z,9.80
2023-02-12T23:26:56.417Z,9.80
2023-02-12T23:29:24.672Z,9.60
2023-02-12T23:31:53.660Z,9.70
2023-02-12T23:34:21.472Z,9.60
2023-02-12T23:36:49.350Z,10.30
2023-02-12T23:39:17.239Z,9.40
2023-02-12T23:41:45.117Z,8.80
2023-02-12T23:44:13.056Z,10.50
2023-02-12T23:46:41.860Z,9.30
2023-02-12T23:49:09.891Z,10.10
2023-02-12T23:51:38.043Z,9.40
2023-02-12T23:54:05.873Z,9.10
2023-02-12T23:56:33.654Z,10.00
2023-02-12T23:59:01.604Z,9.10
